createdAt,value
2023-05-08T00:03:40.050Z,7.00
2023-05-08T00:08:42.451Z,6.70
2023-05-08T00:13:44.840Z,5.90
2023-05-08T00:18:46.936Z,5.90
2023-05-08T00:23:49.105Z,6.30
2023-05-08T00:28:51.395Z,6.10
2023-05-08T00:33:53.579Z,5.60
2023-05-08T00:38:55.759Z,5.10
2023-05-08T00:43:58.046Z,4.10
2023-05-08T00:49:01.150Z,3.70
2023-05-08T00:54:03.888Z,3.90
2023-05-08T00:59:11.184Z,5.10
2023-05-08T01:04:14.680Z,4.10
2023-05-08T01:09:16.856Z,3.20
2023-05-08T01:14:37.167Z,4.10
2023-05-08T01:20:06.690Z,4.20
2023-05-08T01:25:44.003Z,4.80
2023-05-08T01:31:11.783Z,5.10
2023-05-08T01:36:57.489Z,4.70
2023-05-08T01:42:13.905Z,4.20
2023-05-08T01:47:18.679Z,4.70
2023-05-08T01:52:32.915Z,4.80
2023-05-08T01:57:39.845Z,9.80
2023-05-08T02:02:42.466Z,6.00
2023-05-08T02:07:48.120Z,7.10
2023-05-08T02:12:51.200Z,5.80
2023-05-08T02:17:55.058Z,5.20
2023-05-08T02:22:57.894Z,6.10
2023-05-08T02:28:01.105Z,6.50
2023-05-08T02:33:05.512Z,6.10
2023-05-08T02:43:12.987Z,5.70
2023-05-08T02:48:24.926Z,6.90
2023-05-08T02:53:43.773Z,5.40
2023-05-08T02:59:11.652Z,7.40
2023-05-08T03:04:25.207Z,4.70
2023-05-08T03:09:36.769Z,4.40
2023-05-08T03:14:44.067Z,6.50
2023-05-08T03:19:51.970Z,4.80
2023-05-08T03:24:56.263Z,4.50
2023-05-08T03:30:01.518Z,4.30
2023-05-08T03:35:05.189Z,4.90
2023-05-08T03:40:08.349Z,4.90
2023-05-08T03:45:11.055Z,5.10
2023-05-08T03:50:13.579Z,4.60
2023-05-08T03:55:16.130Z,4.30
2023-05-08T04:00:36.439Z,4.40
2023-05-08T04:05:49.583Z,5.90
2023-05-08T04:11:26.425Z,5.00
2023-05-08T04:16:32.625Z,5.70
2023-05-08T04:21:36.696Z,4.30
2023-05-08T04:26:40.304Z,5.90
2023-05-08T04:31:43.132Z,8.30
2023-05-08T04:36:45.811Z,6.90
2023-05-08T04:41:48.534Z,5.90
2023-05-08T04:46:50.907Z,5.40
2023-05-08T04:51:53.689Z,5.40
2023-05-08T04:56:55.876Z,4.20
2023-05-08T05:01:58.548Z,3.80
2023-05-08T05:07:01.376Z,3.70
2023-05-08T05:12:04.570Z,4.00
2023-05-08T05:17:06.754Z,4.10
2023-05-08T05:22:10.275Z,5.40
2023-05-08T05:27:12.463Z,5.80
2023-05-08T05:32:14.752Z,22.70
2023-05-08T05:37:17.128Z,19.70
2023-05-08T05:42:19.309Z,19.30
2023-05-08T05:47:21.625Z,16.70
2023-05-08T05:52:23.879Z,15.80
2023-05-08T05:57:26.066Z,14.40
2023-05-08T06:02:28.395Z,15.80
2023-05-08T06:07:30.853Z,11.00
2023-05-08T06:12:33.027Z,10.00
2023-05-08T06:17:35.128Z,6.40
2023-05-08T06:22:39.754Z,5.50
2023-05-08T06:27:41.937Z,6.80
2023-05-08T06:32:44.152Z,5.50
2023-05-08T06:37:46.522Z,6.10
2023-05-08T06:42:48.902Z,6.60
2023-05-08T06:47:51.007Z,6.70
2023-05-08T06:52:53.070Z,9.60
2023-05-08T06:57:55.556Z,10.80
2023-05-08T07:02:57.794Z,12.60
2023-05-08T07:08:00.025Z,13.20
2023-05-08T07:13:02.296Z,12.40
2023-05-08T07:18:04.727Z,23.70
2023-05-08T07:23:07.308Z,10.60
2023-05-08T07:28:09.485Z,10.40
2023-05-08T07:33:12.280Z,7.30
2023-05-08T07:38:14.566Z,7.30
2023-05-08T07:43:16.863Z,3.10
2023-05-08T07:48:19.548Z,2.10
2023-05-08T07:53:21.637Z,3.80
2023-05-08T07:58:24.022Z,2.90
2023-05-08T08:03:26.370Z,2.00
2023-05-08T08:08:28.796Z,1.80
2023-05-08T08:13:32.431Z,2.70
2023-05-08T08:18:37.666Z,2.20
2023-05-08T08:23:39.852Z,1.50
2023-05-08T08:28:42.459Z,1.60
2023-05-08T08:33:44.632Z,2.20
2023-05-08T08:38:46.815Z,2.30
2023-05-08T08:43:49.214Z,2.20
2023-05-08T08:48:54.379Z,2.40
2023-05-08T08:54:28.185Z,2.50
2023-05-08T08:59:32.629Z,2.10
2023-05-08T09:04:34.710Z,2.50
2023-05-08T09:09:40.544Z,1.90
2023-05-08T09:14:43.379Z,2.70
2023-05-08T09:19:49.054Z,2.00
2023-05-08T09:24:59.923Z,1.70
2023-05-08T09:30:10.071Z,1.70
2023-05-08T09:35:12.674Z,2.80
2023-05-08T09:40:20.992Z,2.20
2023-05-08T09:45:31.712Z,4.50
2023-05-08T09:50:34.105Z,1.40
2023-05-08T09:55:48.723Z,1.80
2023-05-08T10:00:51.193Z,1.80
2023-05-08T10:05:53.450Z,1.40
2023-05-08T10:11:14.308Z,1.40
2023-05-08T10:16:18.229Z,1.80
2023-05-08T10:21:20.783Z,1.40
2023-05-08T10:26:30.766Z,5.20
2023-05-08T10:31:36.147Z,2.50
2023-05-08T10:36:38.809Z,3.30
2023-05-08T10:41:41.412Z,1.80
2023-05-08T10:47:22.097Z,1.90
2023-05-08T10:52:29.501Z,1.20
2023-05-08T10:57:32.003Z,1.30
2023-05-08T11:02:36.584Z,1.40
2023-05-08T11:07:58.788Z,1.10
2023-05-08T11:13:01.630Z,1.70
2023-05-08T11:18:13.116Z,1.90
2023-05-08T11:23:25.826Z,1.40
2023-05-08T11:28:32.738Z,1.40
2023-05-08T11:33:37.550Z,1.30
2023-05-08T11:38:40.451Z,1.30
2023-05-08T11:44:00.664Z,1.10
2023-05-08T11:49:03.154Z,1.40
2023-05-08T11:54:06.261Z,1.00
2023-05-08T11:59:09.064Z,1.40
2023-05-08T12:04:12.797Z,1.50
2023-05-08T12:09:18.358Z,1.40
2023-05-08T12:14:23.195Z,1.70
2023-05-08T12:19:25.271Z,1.20
2023-05-08T12:24:27.450Z,1.70
2023-05-08T12:29:29.534Z,1.30
2023-05-08T12:34:32.030Z,1.20
2023-05-08T12:39:36.939Z,1.90
2023-05-08T12:44:38.957Z,1.70
2023-05-08T12:49:41.346Z,1.30
2023-05-08T12:54:47.934Z,1.40
2023-05-08T12:59:50.118Z,1.40
2023-05-08T13:04:55.503Z,1.70
2023-05-08T13:10:03.131Z,1.30
2023-05-08T13:15:05.685Z,3.60
2023-05-08T13:20:08.841Z,1.90
2023-05-08T13:25:10.998Z,2.30
2023-05-08T13:30:15.093Z,4.40
2023-05-08T13:35:18.933Z,1.20
2023-05-08T13:40:21.005Z,2.00
2023-05-08T13:45:23.605Z,1.40
2023-05-08T13:50:25.681Z,1.50
2023-05-08T13:55:27.883Z,1.60
2023-05-08T14:00:30.257Z,1.30
2023-05-08T14:05:32.440Z,26.20
2023-05-08T14:10:34.929Z,1.00
2023-05-08T14:15:37.912Z,2.30
2023-05-08T14:20:40.335Z,1.30
2023-05-08T14:25:42.506Z,1.20
2023-05-08T14:30:44.588Z,1.40
2023-05-08T14:35:48.004Z,2.80
2023-05-08T14:40:50.596Z,5.40
2023-05-08T14:45:52.753Z,9.40
2023-05-08T14:50:56.818Z,16.10
2023-05-08T14:55:59.261Z,22.60
2023-05-08T15:01:01.692Z,27.20
2023-05-08T15:06:04.550Z,32.70
2023-05-08T15:11:06.571Z,35.00
2023-05-08T15:16:09.096Z,40.10
2023-05-08T15:21:11.242Z,38.20
2023-05-08T15:26:13.432Z,37.50
2023-05-08T15:31:15.848Z,37.90
2023-05-08T15:36:18.002Z,38.50
2023-05-08T15:41:21.420Z,34.20
2023-05-08T15:46:23.651Z,30.40
2023-05-08T15:51:26.094Z,26.00
2023-05-08T15:56:28.280Z,21.10
2023-05-08T16:01:30.387Z,17.40
2023-05-08T16:06:32.679Z,15.60
2023-05-08T16:11:34.726Z,12.20
2023-05-08T16:16:38.760Z,44.10
2023-05-08T16:26:42.612Z,5.10
2023-05-08T16:31:44.826Z,4.30
2023-05-08T16:36:46.980Z,4.00
2023-05-08T16:41:48.990Z,3.00
2023-05-08T16:46:51.403Z,2.40
2023-05-08T16:51:53.414Z,1.70
2023-05-08T16:56:55.697Z,1.80
2023-05-08T17:01:57.717Z,1.70
2023-05-08T17:07:00.428Z,1.50
2023-05-08T17:12:02.412Z,3.60
2023-05-08T17:17:04.701Z,2.20
2023-05-08T17:22:06.789Z,1.70
2023-05-08T17:27:09.238Z,9.20
2023-05-08T17:32:11.503Z,1.50
2023-05-08T17:37:13.805Z,1.80
2023-05-08T17:42:16.093Z,1.90
2023-05-08T17:47:18.200Z,2.30
2023-05-08T17:52:20.459Z,3.40
2023-05-08T17:57:22.512Z,2.30
2023-05-08T18:02:24.977Z,4.80
2023-05-08T18:07:27.732Z,22.80
2023-05-08T18:12:32.084Z,4.50
2023-05-08T18:17:34.145Z,3.30
2023-05-08T18:22:36.748Z,3.30
2023-05-08T18:27:42.720Z,6.80
2023-05-08T18:32:44.826Z,6.70
2023-05-08T18:37:47.902Z,34.00
2023-05-08T18:42:49.911Z,5.90
2023-05-08T18:47:53.626Z,3.40
2023-05-08T18:52:55.994Z,3.70
2023-05-08T18:57:58.178Z,3.60
2023-05-08T19:03:00.529Z,4.50
2023-05-08T19:08:05.619Z,4.90
2023-05-08T19:13:07.746Z,5.70
2023-05-08T19:18:09.830Z,5.10
2023-05-08T19:23:11.965Z,4.70
2023-05-08T19:28:15.478Z,4.70
2023-05-08T19:33:21.573Z,5.50
2023-05-08T19:38:25.993Z,8.70
2023-05-08T19:43:28.176Z,10.80
2023-05-08T19:48:30.207Z,10.30
2023-05-08T19:53:32.440Z,5.20
2023-05-08T19:58:34.623Z,3.20
2023-05-08T20:03:37.415Z,20.60
2023-05-08T20:08:39.506Z,3.40
2023-05-08T20:13:41.601Z,2.90
2023-05-08T20:18:44.384Z,2.40
2023-05-08T20:23:46.572Z,3.70
2023-05-08T20:28:48.962Z,2.90
2023-05-08T20:33:51.159Z,2.70
2023-05-08T20:38:54.817Z,2.70
2023-05-08T20:43:59.656Z,2.90
2023-05-08T20:49:03.645Z,3.50
2023-05-08T20:55:11.185Z,2.40
2023-05-08T21:00:14.751Z,3.10
2023-05-08T21:05:18.183Z,3.10
2023-05-08T21:10:20.642Z,2.80
2023-05-08T21:15:22.758Z,2.90
2023-05-08T21:20:24.951Z,3.40
2023-05-08T21:25:27.124Z,4.20
2023-05-08T21:30:36.170Z,3.80
2023-05-08T21:35:38.371Z,3.10
2023-05-08T21:40:40.762Z,3.10
2023-05-08T21:45:43.040Z,5.20
2023-05-08T21:50:45.345Z,3.80
2023-05-08T21:55:47.506Z,3.40
2023-05-08T22:00:49.684Z,2.90
2023-05-08T22:05:51.872Z,3.30
2023-05-08T22:10:53.960Z,3.00
2023-05-08T22:15:56.785Z,3.50
2023-05-08T22:20:59.038Z,3.00
2023-05-08T22:26:02.441Z,3.30
2023-05-08T22:31:06.275Z,3.70
2023-05-08T22:36:09.445Z,3.50
2023-05-08T22:41:11.571Z,3.40
2023-05-08T22:46:16.478Z,3.10
2023-05-08T22:51:19.109Z,3.10
2023-05-08T22:56:21.700Z,2.80
2023-05-08T23:01:24.118Z,3.10
2023-05-08T23:06:26.582Z,2.70
2023-05-08T23:11:28.660Z,3.10
2023-05-08T23:16:30.886Z,3.30
2023-05-08T23:21:33.548Z,3.20
2023-05-08T23:26:35.727Z,3.20
2023-05-08T23:31:37.870Z,3.20
2023-05-08T23:36:40.198Z,3.10
2023-05-08T23:41:42.493Z,3.50
2023-05-08T23:46:45.857Z,4.20
2023-05-08T23:51:48.085Z,3.80
2023-05-08T23:56:50.377Z,3.60
